• Join FlightAware (Why Join?)
  • Login
  • US Flag 
10:09PM EST


 

Airport Tracker/Info


-or-


 

Live Flight TrackerFlight Track Log ✈ N6ZQ ✈ 02-Oct-2013 ✈ KRMN - KGMU

Flight Track Log - Related Links

Times and Time Zones

All times are in EDT time to prevent confusion due to time zone crossing. See the N6ZQ flight status page for this flight to view local times or setup timezone preferences in your user account.

Time Position Orientation Groundspeed Altitude Reporting Facility
EDT Latitude Longitude Course Direction KTS MPH feet Rate Location/Type
01:09PM 38.3333 -77.3667 237° Southwest 152 175 2,200  Level Potomac TRACON
01:10PM 38.3167 -77.4000 237° Southwest 174 200 2,900 900 Climbing Potomac TRACON
01:11PM 38.3167 -77.4500 270° West 174 200 4,000 1,020 Climbing Potomac TRACON
01:12PM 38.3167 -77.5000 270° West 164 189 4,900 960 Climbing Potomac TRACON
01:13PM 38.3167 -77.5667 270° West 173 199 6,000 960 Climbing Potomac TRACON
01:14PM 38.2811 -77.6311 235° Southwest 181 208 7,200 960 Climbing Washington Center
01:15PM 38.2572 -77.6806 238° Southwest 181 208 8,200 960 Climbing Washington Center
01:16PM 38.2314 -77.7303 237° Southwest 176 203 9,200 840 Climbing Washington Center
01:17PM 38.2053 -77.7822 237° Southwest 176 203 9,900 300 Climbing Washington Center
01:18PM 38.1753 -77.8394 236° Southwest 184 212 9,900  Level Washington Center
01:19PM 38.1447 -77.9019 238° Southwest 198 228 10,000  Climbing Washington Center
01:20PM 38.1103 -77.9669 236° Southwest 212 244 10,000  Level Washington Center
01:21PM 38.0797 -78.0292 238° Southwest 212 244 10,000  Level Washington Center
01:22PM 38.0492 -78.0914 238° Southwest 212 244 10,000  Level Washington Center
01:23PM 38.0147 -78.1483 232° Southwest 207 238 10,000  Level Washington Center
01:24PM 37.9800 -78.2078 233° Southwest 207 238 10,000  Level Washington Center
01:25PM 37.9478 -78.2567 230° Southwest 212 244 10,000  Level Washington Center
01:26PM 37.9111 -78.3081 228° Southwest 207 238 10,000  Level Washington Center
01:27PM 37.8722 -78.3644 229° Southwest 207 238 10,000  Level Washington Center
01:28PM 37.8356 -78.4183 229° Southwest 207 238 10,000  Level Washington Center
01:29PM 37.7925 -78.4772 227° Southwest 207 238 10,000  Level Washington Center
01:30PM 37.7533 -78.5336 229° Southwest 207 238 10,000  Level Washington Center
01:31PM 37.7189 -78.5872 231° Southwest 207 238 10,000  Level Washington Center
01:32PM 37.6778 -78.6408 226° Southwest 212 244 10,000  Level Washington Center
01:33PM 37.6453 -78.6892 230° Southwest 212 244 10,000  Level Washington Center
01:34PM 37.6061 -78.7453 229° Southwest 212 244 10,000  Level Washington Center
01:35PM 37.5694 -78.7961 228° Southwest 212 244 10,000  Level Washington Center
01:36PM 37.5306 -78.8497 228° Southwest 212 244 10,000  Level Washington Center
01:37PM 37.4892 -78.9081 228° Southwest 212 244 10,000  Level Washington Center
01:38PM 37.4500 -78.9639 229° Southwest 212 244 10,000  Level Washington Center
01:39PM 37.4131 -79.0172 229° Southwest 212 244 10,000  Level Washington Center
01:40PM 37.3742 -79.0678 226° Southwest 212 244 10,000  Level Washington Center
01:41PM 37.3394 -79.1158 228° Southwest 212 244 10,000  Level Washington Center
01:42PM 37.3022 -79.1714 230° Southwest 212 244 10,000  Level Washington Center
01:43PM 37.2631 -79.2244 227° Southwest 212 244 10,000  Level Washington Center
01:44PM 37.2258 -79.2800 230° Southwest 212 244 10,000  Level Washington Center
01:45PM 37.1886 -79.3356 230° Southwest 212 244 10,000  Level Washington Center
01:46PM 37.1492 -79.3964 231° Southwest 212 244 10,000  Level Washington Center
01:47PM 37.1100 -79.4517 228° Southwest 212 244 10,000  Level Washington Center
01:48PM 37.0728 -79.5069 230° Southwest 212 244 10,000  Level Washington Center
01:49PM 37.0353 -79.5625 230° Southwest 212 244 10,000  Level Washington Center
01:50PM 37.0025 -79.6128 231° Southwest 212 244 10,000  Level Washington Center
01:51PM 36.9631 -79.6678 228° Southwest 212 244 10,000  Level Washington Center
01:52PM 36.9256 -79.7256 231° Southwest 212 244 10,000  Level Washington Center
01:53PM 36.8881 -79.7808 230° Southwest 212 244 10,000  Level Washington Center
01:55PM 36.8258 -79.8624 226° Southwest  Level FlightAware Approximate
02:02PM 36.5619 -80.2279 228° Southwest  Level FlightAware Approximate
02:03PM 36.5240 -80.2798 229° Southwest  Level FlightAware Approximate
02:03PM 36.5128 -80.3192 228° Southwest 212 244 10,000  Level Atlanta Center
02:04PM 36.4880 -80.3304 229° Southwest  Level FlightAware Approximate
02:04PM 36.4708 -80.3806 230° Southwest 217 250 10,000  Level Atlanta Center
02:05PM 36.4520 -80.3810 228° Southwest  Level FlightAware Approximate
02:05PM 36.4328 -80.4339 228° Southwest 217 250 10,000  Level Atlanta Center
02:06PM 36.4160 -80.4314 228° Southwest  Level FlightAware Approximate
02:06PM 36.3928 -80.4897 228° Southwest 217 250 10,000  Level Atlanta Center
02:07PM 36.3799 -80.4819 228° Southwest  Level FlightAware Approximate
02:07PM 36.3550 -80.5483 231° Southwest 217 250 10,000  Level Atlanta Center
02:08PM 36.3208 -80.5986 230° Southwest 217 250 10,000  Level Atlanta Center
02:09PM 36.2828 -80.6517 228° Southwest 217 250 10,000  Level Atlanta Center
02:10PM 36.2425 -80.7075 228° Southwest 217 250 10,000  Level Atlanta Center
02:11PM 36.2044 -80.7631 230° Southwest 217 250 10,000  Level Atlanta Center
02:12PM 36.1661 -80.8186 229° Southwest 212 244 10,100  Climbing Atlanta Center
02:13PM 36.1239 -80.8794 229° Southwest 212 244 10,000 -60 Descending Atlanta Center
02:14PM 36.0858 -80.9325 228° Southwest 212 244 10,000  Level Atlanta Center
02:15PM 36.0475 -80.9903 231° Southwest 212 244 10,000  Level Atlanta Center
02:16PM 36.0092 -81.0431 228° Southwest 212 244 10,000  Level Atlanta Center
02:17PM 35.9708 -81.0983 229° Southwest 212 244 10,000  Level Atlanta Center
02:18PM 35.9306 -81.1536 228° Southwest 212 244 10,000  Level Atlanta Center
02:19PM 35.8922 -81.2114 231° Southwest 212 244 10,000  Level Atlanta Center
02:20PM 35.8561 -81.2692 232° Southwest 218 251 10,000  Level Atlanta Center
02:21PM 35.8281 -81.3317 241° Southwest 213 245 10,000  Level Atlanta Center
02:22PM 35.8006 -81.3992 243° Southwest 213 245 10,000  Level Atlanta Center
02:23PM 35.7725 -81.4614 241° Southwest 213 245 10,000  Level Atlanta Center
02:24PM 35.7361 -81.5136 229° Southwest 208 239 10,000  Level Atlanta Center
02:25PM 35.6892 -81.5611 219° Southwest 208 239 10,000  Level Atlanta Center
02:26PM 35.6439 -81.6033 217° Southwest 214 246 10,000  Level Atlanta Center
02:27PM 35.6031 -81.6456 220° Southwest 214 246 10,000 -300 Level Atlanta Center
02:28PM 35.5558 -81.6878 216° Southwest 214 246 9,500 -480 Descending Atlanta Center
02:29PM 35.5047 -81.7350 217° Southwest 219 252 9,100 -480 Descending Atlanta Center
02:30PM 35.4575 -81.7822 219° Southwest 219 252 8,600 -540 Descending Atlanta Center
02:31PM 35.4106 -81.8269 218° Southwest 219 252 8,100 -600 Descending Atlanta Center
02:32PM 35.3611 -81.8742 218° Southwest 219 252 7,500 -600 Descending Atlanta Center
02:33PM 35.3139 -81.9161 216° Southwest 219 252 7,000 -540 Descending Atlanta Center
02:34PM 35.2667 -81.9606 218° Southwest 219 252 6,500 -540 Descending Atlanta Center
02:35PM 35.2111 -82.0025 212° Southwest 219 252 6,000 -300 Descending Atlanta Center
02:36PM 35.1572 -82.0242 198° South 213 245 6,000  Level Atlanta Center
02:37PM 35.1072 -82.0356 191° South 202 232 6,000  Level Atlanta Center
02:38PM 35.0511 -82.0419 185° South 202 232 6,000  Level Atlanta Center
02:39PM 34.9989 -82.0483 186° South 202 232 6,000 -60 Level Atlanta Center
02:40PM 34.9472 -82.0647 195° South 197 227 5,900 -120 Descending Atlanta Center
02:42PM 34.9087 -82.1855 249° West  Level FlightAware Approximate
02:49PM 34.8333 -82.3500 219° Southwest  Level FlightAware Approximate
02:50PM 34.8479 -82.3500 219° Southwest  Level Estimated
02:51PM 34.8479 -82.3500 219° Southwest  Level Estimated
02:52PM 34.8479 -82.3500 219° Southwest  Level Estimated
02:53PM 34.8479 -82.3500 219° Southwest  Level Estimated
02:54PM 34.8479 -82.3500 219° Southwest  Level Estimated